Time;durP1;ratioP1;P1;durP2;ratioP2;P2;SDS_P1;SDS_P2;PMS_P1;PMS_P2;Temp;Humidity;BMP_temperature;BMP_pressure;BME280_temperature;BME280_humidity;BME280_pressure;Samples;Min_cycle;Max_cycle;Signal;HPM_P1;HPM_P2
2024/01/23 00:08:43;;;;;;;15.73;3.67;;;7.60;99.90;;;;;;5127812;22;20052;-66
2024/01/23 00:21:58;;;;;;;13.88;3.22;;;7.80;99.90;;;;;;6029755;22;20053;-67
2024/01/23 00:26:54;;;;;;;11.23;2.53;;;7.80;99.90;;;;;;5064395;28;20098;-64
2024/01/23 00:29:19;;;;;;;16.10;3.08;;;7.70;99.90;;;;;;5069738;28;20040;-65
2024/01/23 00:31:45;;;;;;;22.33;3.65;;;7.60;99.90;;;;;;5058014;28;20036;-64
2024/01/23 00:34:11;;;;;;;16.55;3.78;;;7.60;99.90;;;;;;5062001;28;20036;-64
2024/01/23 00:36:36;;;;;;;12.57;2.97;;;7.50;99.90;;;;;;5055581;28;20056;-64
2024/01/23 00:39:02;;;;;;;16.15;2.97;;;7.50;99.90;;;;;;5065984;28;20029;-64
2024/01/23 00:41:31;;;;;;;16.67;3.20;;;7.40;99.90;;;;;;5045236;28;20036;-63
2024/01/23 00:43:56;;;;;;;15.25;3.67;;;7.40;99.90;;;;;;5070826;28;20045;-65
2024/01/23 00:46:22;;;;;;;16.63;3.28;;;7.40;99.90;;;;;;5060136;28;20111;-64
2024/01/23 00:48:47;;;;;;;15.65;3.38;;;7.40;99.90;;;;;;5058872;28;20556;-64
2024/01/23 00:51:14;;;;;;;19.98;3.17;;;7.40;99.90;;;;;;5058216;28;20036;-64
2024/01/23 00:53:39;;;;;;;18.70;3.25;;;7.30;99.90;;;;;;5065627;28;20037;-64
2024/01/23 00:56:05;;;;;;;22.55;3.67;;;7.30;99.90;;;;;;5066823;28;20085;-65
2024/01/23 00:58:30;;;;;;;18.33;3.10;;;7.30;99.90;;;;;;5049423;28;20036;-64
2024/01/23 01:00:56;;;;;;;14.35;3.08;;;7.30;99.90;;;;;;5059804;28;20122;-65
2024/01/23 01:03:21;;;;;;;15.75;2.75;;;7.50;99.90;;;;;;5060186;28;20041;-64
2024/01/23 01:05:47;;;;;;;14.07;2.70;;;7.50;99.90;;;;;;5037150;28;20044;-64
2024/01/23 01:08:13;;;;;;;14.85;3.15;;;7.40;99.90;;;;;;5058344;28;20045;-65
2024/01/23 01:10:38;;;;;;;20.48;3.25;;;7.40;99.90;;;;;;5062983;28;20039;-64
2024/01/23 01:13:04;;;;;;;14.35;3.17;;;7.40;99.90;;;;;;5065995;28;20111;-63
2024/01/23 01:15:30;;;;;;;15.48;3.70;;;7.30;99.90;;;;;;5067977;28;20486;-64
2024/01/23 01:17:56;;;;;;;21.35;2.83;;;7.40;99.90;;;;;;5065712;28;20068;-63
2024/01/23 01:20:21;;;;;;;14.93;3.25;;;7.30;99.90;;;;;;5045007;28;20079;-63
2024/01/23 01:22:47;;;;;;;19.42;2.88;;;7.20;99.90;;;;;;5053932;28;20074;-64
2024/01/23 01:25:13;;;;;;;13.70;2.90;;;7.20;99.90;;;;;;5052786;28;20507;-62
2024/01/23 01:27:38;;;;;;;17.02;2.72;;;7.30;99.90;;;;;;5061624;28;20059;-63
2024/01/23 01:30:04;;;;;;;16.77;2.85;;;7.30;99.90;;;;;;5056386;28;20399;-65
2024/01/23 01:32:30;;;;;;;19.17;3.38;;;7.40;99.90;;;;;;5033376;28;20095;-64
2024/01/23 01:34:56;;;;;;;17.23;3.25;;;7.50;99.90;;;;;;5046487;28;20032;-64
2024/01/23 01:37:21;;;;;;;13.23;3.67;;;7.50;99.90;;;;;;5060264;28;20111;-64
2024/01/23 01:39:47;;;;;;;17.95;3.20;;;7.50;99.90;;;;;;5071607;28;20494;-65
2024/01/23 01:42:12;;;;;;;22.25;4.63;;;7.60;99.90;;;;;;5058238;28;20040;-64
2024/01/23 01:44:38;;;;;;;16.73;2.97;;;7.60;99.90;;;;;;5062411;28;20166;-64
2024/01/23 01:47:03;;;;;;;16.80;3.85;;;7.60;99.90;;;;;;5071299;28;20391;-64
2024/01/23 01:49:29;;;;;;;16.45;3.28;;;7.60;99.90;;;;;;5065752;28;20410;-64
2024/01/23 01:51:56;;;;;;;15.82;2.80;;;7.50;99.90;;;;;;5057245;28;20471;-64
2024/01/23 01:54:22;;;;;;;17.58;3.33;;;7.50;99.90;;;;;;5062558;28;20036;-64
2024/01/23 01:56:50;;;;;;;20.95;3.75;;;7.50;99.90;;;;;;5063903;28;20637;-65
2024/01/23 01:59:18;;;;;;;18.40;3.90;;;7.50;99.90;;;;;;5066562;28;20044;-65
2024/01/23 02:01:44;;;;;;;36.67;3.97;;;7.50;99.90;;;;;;5045022;28;20134;-63
2024/01/23 02:04:10;;;;;;;14.68;3.00;;;7.40;99.90;;;;;;5073101;28;20101;-64
2024/01/23 02:06:36;;;;;;;17.15;3.47;;;7.40;99.90;;;;;;5069021;28;20120;-65
2024/01/23 02:09:02;;;;;;;22.85;3.83;;;7.30;99.90;;;;;;5062288;28;20037;-65
2024/01/23 02:11:28;;;;;;;18.33;3.03;;;7.30;99.90;;;;;;5066674;28;20044;-66
2024/01/23 02:13:54;;;;;;;18.40;3.38;;;7.20;99.90;;;;;;5067143;28;20032;-66
2024/01/23 02:16:20;;;;;;;11.95;2.88;;;7.20;99.90;;;;;;5063639;28;20037;-66
2024/01/23 02:18:46;;;;;;;19.58;3.90;;;7.20;99.90;;;;;;5066322;28;20043;-66
2024/01/23 02:21:13;;;;;;;19.60;3.70;;;7.10;99.90;;;;;;5075220;28;20045;-66
2024/01/23 02:23:39;;;;;;;15.60;3.20;;;7.10;99.90;;;;;;5055745;28;20607;-66
2024/01/23 02:26:04;;;;;;;13.20;3.95;;;7.10;99.90;;;;;;5068074;28;20036;-66
2024/01/23 02:28:30;;;;;;;15.20;3.10;;;7.10;99.90;;;;;;5055920;28;20048;-66
2024/01/23 02:30:55;;;;;;;20.60;2.97;;;7.00;99.90;;;;;;5035659;28;20032;-66
2024/01/23 02:33:21;;;;;;;21.70;3.83;;;7.00;99.90;;;;;;5069916;28;20036;-66
2024/01/23 02:35:46;;;;;;;17.58;3.10;;;7.00;99.90;;;;;;5067393;28;20098;-66
2024/01/23 02:38:12;;;;;;;16.80;3.65;;;6.90;99.90;;;;;;5074744;28;20036;-66
2024/01/23 02:40:38;;;;;;;18.50;4.00;;;6.90;99.90;;;;;;5069436;28;20028;-66
2024/01/23 02:43:03;;;;;;;19.33;3.50;;;6.90;99.90;;;;;;5062430;28;20117;-65
2024/01/23 02:45:29;;;;;;;20.60;3.90;;;6.90;99.90;;;;;;5048022;28;20048;-66
2024/01/23 02:47:54;;;;;;;16.52;3.33;;;6.90;99.90;;;;;;5065679;28;20028;-66
2024/01/23 02:50:20;;;;;;;21.85;4.15;;;6.80;99.90;;;;;;5070442;28;20436;-66
2024/01/23 02:52:46;;;;;;;11.57;2.80;;;6.90;99.90;;;;;;5066523;28;20603;-66
2024/01/23 02:55:12;;;;;;;18.88;3.20;;;6.80;99.90;;;;;;5056366;28;20048;-66
2024/01/23 02:57:37;;;;;;;17.67;3.50;;;6.70;99.90;;;;;;5060890;28;20036;-66
2024/01/23 03:00:04;;;;;;;17.52;3.03;;;6.70;99.90;;;;;;5062649;28;20029;-64
2024/01/23 03:02:29;;;;;;;15.68;3.35;;;6.80;99.90;;;;;;5054496;28;20060;-64
2024/01/23 03:04:55;;;;;;;21.27;3.90;;;6.70;99.90;;;;;;5064701;28;20551;-65
2024/01/23 03:07:21;;;;;;;23.33;3.95;;;6.60;99.90;;;;;;5065382;28;20547;-64
2024/01/23 03:09:46;;;;;;;16.55;3.60;;;6.70;99.90;;;;;;5048749;28;20071;-65
2024/01/23 03:12:16;;;;;;;18.48;3.38;;;6.80;99.90;;;;;;5073832;28;20044;-64
2024/01/23 03:14:45;;;;;;;17.48;3.33;;;6.80;99.90;;;;;;5062347;28;20029;-64
2024/01/23 03:17:11;;;;;;;14.43;3.30;;;6.80;99.90;;;;;;5064663;28;20033;-65
2024/01/23 03:19:37;;;;;;;21.50;4.32;;;6.80;99.90;;;;;;5073598;28;20040;-65
2024/01/23 03:22:03;;;;;;;20.17;3.10;;;6.80;99.90;;;;;;5045353;28;20066;-65
2024/01/23 03:24:29;;;;;;;23.08;3.95;;;6.80;99.90;;;;;;5063347;28;20490;-65
2024/01/23 03:26:55;;;;;;;20.08;3.10;;;6.90;99.90;;;;;;5061218;28;20052;-66
2024/01/23 03:29:21;;;;;;;23.08;3.85;;;7.00;99.90;;;;;;5057599;28;20487;-66
2024/01/23 03:31:49;;;;;;;19.13;3.88;;;7.00;99.90;;;;;;5068995;28;20083;-65
2024/01/23 03:34:14;;;;;;;21.33;3.72;;;7.10;99.90;;;;;;5069787;28;20037;-66
2024/01/23 03:36:40;;;;;;;17.50;3.55;;;7.10;99.90;;;;;;5070796;28;20102;-66
2024/01/23 03:39:06;;;;;;;25.92;3.55;;;7.20;99.90;;;;;;5061224;28;20178;-66
2024/01/23 03:41:31;;;;;;;24.13;4.13;;;7.20;99.90;;;;;;5063472;28;20060;-66
2024/01/23 03:43:57;;;;;;;21.67;3.47;;;7.20;99.90;;;;;;5072781;28;20047;-65
2024/01/23 03:46:22;;;;;;;24.00;4.07;;;7.20;99.90;;;;;;5068166;28;20051;-66
2024/01/23 03:48:48;;;;;;;18.77;3.30;;;7.30;99.90;;;;;;5063439;28;20509;-66
2024/01/23 03:51:13;;;;;;;21.83;3.88;;;7.20;99.90;;;;;;5064785;28;20455;-66
2024/01/23 03:53:39;;;;;;;19.58;4.30;;;7.30;99.90;;;;;;5067603;28;20394;-66
2024/01/23 03:56:05;;;;;;;21.17;3.60;;;7.40;99.90;;;;;;5053507;28;20036;-65
2024/01/23 03:58:30;;;;;;;21.05;3.80;;;7.40;99.90;;;;;;5062613;28;20041;-65
2024/01/23 04:00:59;;;;;;;20.05;3.80;;;7.40;99.90;;;;;;5073331;28;20663;-66
2024/01/23 04:03:25;;;;;;;21.85;4.18;;;7.50;99.90;;;;;;5060181;28;20037;-65
2024/01/23 04:05:50;;;;;;;24.75;4.50;;;7.40;99.90;;;;;;5065410;28;20043;-65
2024/01/23 04:08:16;;;;;;;14.23;3.83;;;7.40;99.90;;;;;;5069450;28;20048;-66
2024/01/23 04:10:41;;;;;;;17.30;3.47;;;7.40;99.90;;;;;;5063676;28;20033;-66
2024/01/23 04:13:07;;;;;;;22.52;4.65;;;7.40;99.90;;;;;;5069104;28;20039;-65
2024/01/23 04:15:33;;;;;;;17.02;3.90;;;7.40;99.90;;;;;;5064169;28;20040;-65
2024/01/23 04:17:58;;;;;;;25.20;4.00;;;7.40;99.90;;;;;;5072981;28;20498;-66
2024/01/23 04:20:24;;;;;;;21.95;4.47;;;7.40;99.90;;;;;;5042361;28;20126;-66
2024/01/23 04:22:49;;;;;;;15.80;3.70;;;7.50;99.90;;;;;;5066459;28;20591;-66
2024/01/23 04:25:15;;;;;;;21.92;3.97;;;7.50;99.90;;;;;;5068802;28;20395;-66
2024/01/23 04:27:40;;;;;;;18.20;4.13;;;7.50;99.90;;;;;;5053240;28;20501;-66
2024/01/23 04:30:07;;;;;;;16.40;3.65;;;7.60;99.90;;;;;;5044391;28;20410;-66
2024/01/23 04:32:32;;;;;;;14.98;3.50;;;7.60;99.90;;;;;;5063548;28;20405;-65
2024/01/23 04:34:58;;;;;;;22.23;4.25;;;7.60;99.90;;;;;;5070970;28;20037;-64
2024/01/23 04:37:23;;;;;;;24.38;3.95;;;7.60;99.90;;;;;;5061124;28;20029;-66
2024/01/23 04:39:49;;;;;;;16.30;3.20;;;7.50;99.90;;;;;;5061024;28;20041;-66
2024/01/23 04:42:14;;;;;;;19.88;3.75;;;7.50;99.90;;;;;;5059802;28;20115;-66
2024/01/23 04:44:40;;;;;;;20.33;4.18;;;7.40;99.90;;;;;;5059442;28;20551;-65
2024/01/23 04:47:05;;;;;;;21.77;3.97;;;7.40;99.90;;;;;;5054995;28;20044;-65
2024/01/23 04:49:31;;;;;;;27.27;4.38;;;7.40;99.90;;;;;;5051873;28;20102;-65
2024/01/23 04:51:56;;;;;;;23.52;4.30;;;7.40;99.90;;;;;;5050389;28;20040;-65
2024/01/23 04:54:23;;;;;;;22.65;4.18;;;7.40;99.90;;;;;;5035624;28;20045;-64
2024/01/23 04:56:49;;;;;;;14.20;4.20;;;7.50;99.90;;;;;;5055972;28;20037;-65
2024/01/23 04:59:14;;;;;;;22.60;4.05;;;7.40;99.90;;;;;;5071604;28;20093;-65
2024/01/23 05:01:40;;;;;;;24.98;4.20;;;7.50;99.90;;;;;;5055161;28;20406;-64
2024/01/23 05:04:05;;;;;;;28.67;4.53;;;7.40;99.90;;;;;;5062537;28;20453;-66
2024/01/23 05:06:31;;;;;;;16.98;3.50;;;7.40;99.90;;;;;;5070499;28;20104;-66
2024/01/23 05:08:57;;;;;;;22.60;4.43;;;7.50;99.90;;;;;;5048693;28;20140;-65
2024/01/23 05:11:22;;;;;;;24.17;4.70;;;7.40;99.90;;;;;;5065045;28;20045;-65
2024/01/23 05:13:48;;;;;;;23.27;4.38;;;7.40;99.90;;;;;;5045917;28;20044;-65
2024/01/23 05:16:14;;;;;;;22.95;4.70;;;7.50;99.90;;;;;;5071815;28;20055;-65
2024/01/23 05:18:40;;;;;;;19.85;4.63;;;7.50;99.90;;;;;;5058773;28;20115;-65
2024/01/23 05:21:05;;;;;;;22.40;4.45;;;7.50;99.90;;;;;;5058651;28;20165;-66
2024/01/23 05:23:31;;;;;;;24.42;4.68;;;7.60;99.90;;;;;;5061277;28;20120;-66
2024/01/23 05:25:56;;;;;;;24.88;4.53;;;7.60;99.90;;;;;;5067114;28;20037;-65
2024/01/23 05:28:22;;;;;;;15.43;3.63;;;7.60;99.90;;;;;;5049119;28;20055;-65
2024/01/23 05:30:47;;;;;;;26.55;4.70;;;7.50;99.90;;;;;;5066064;28;20032;-64
2024/01/23 05:33:13;;;;;;;27.63;4.88;;;7.60;99.90;;;;;;5062689;28;20036;-64
2024/01/23 05:35:39;;;;;;;24.85;5.03;;;7.60;99.90;;;;;;5051095;28;20041;-65
2024/01/23 05:38:04;;;;;;;29.08;4.72;;;7.60;99.90;;;;;;5059109;28;20044;-65
2024/01/23 05:40:30;;;;;;;24.05;4.43;;;7.60;99.90;;;;;;5051747;28;20045;-65
2024/01/23 05:42:55;;;;;;;27.52;4.60;;;7.50;99.90;;;;;;5059645;28;20032;-66
2024/01/23 05:45:21;;;;;;;27.88;5.18;;;7.40;99.90;;;;;;5061256;28;20041;-66
2024/01/23 05:47:46;;;;;;;27.67;5.22;;;7.30;99.90;;;;;;5071426;28;20037;-65
2024/01/23 05:50:12;;;;;;;26.23;4.80;;;7.30;99.90;;;;;;5060199;28;20087;-67
2024/01/23 05:52:37;;;;;;;22.65;5.22;;;7.30;99.90;;;;;;5061370;28;20032;-64
2024/01/23 05:55:03;;;;;;;22.67;4.68;;;7.30;99.90;;;;;;5037060;28;20036;-65
2024/01/23 05:57:29;;;;;;;21.38;3.88;;;7.30;99.90;;;;;;5039094;28;20040;-65
2024/01/23 05:59:55;;;;;;;20.85;4.20;;;7.30;99.90;;;;;;5058407;28;20040;-65
2024/01/23 06:02:21;;;;;;;20.90;4.90;;;7.30;99.90;;;;;;5057914;28;20040;-65
2024/01/23 06:04:46;;;;;;;21.08;3.92;;;7.30;99.90;;;;;;5067376;28;20063;-65
2024/01/23 06:07:12;;;;;;;27.48;4.60;;;7.40;99.90;;;;;;5059863;28;20043;-66
2024/01/23 06:09:37;;;;;;;26.48;4.45;;;7.40;99.90;;;;;;5057956;28;20599;-65
2024/01/23 06:12:03;;;;;;;27.65;5.03;;;7.40;99.90;;;;;;5056451;28;20115;-65
2024/01/23 06:14:29;;;;;;;27.05;3.85;;;7.40;99.90;;;;;;5056528;28;20132;-66
2024/01/23 06:16:56;;;;;;;19.23;3.85;;;7.30;99.90;;;;;;5036105;28;20041;-65
2024/01/23 06:19:22;;;;;;;26.30;4.65;;;7.40;99.90;;;;;;5059481;28;20042;-65
2024/01/23 06:21:47;;;;;;;21.55;4.28;;;7.30;99.90;;;;;;5039328;28;20037;-65
2024/01/23 06:24:13;;;;;;;27.30;4.43;;;7.40;99.90;;;;;;5038727;28;20071;-66
2024/01/23 06:26:39;;;;;;;30.13;4.82;;;7.40;99.90;;;;;;5055671;28;20052;-66
2024/01/23 06:29:04;;;;;;;29.63;4.53;;;7.40;99.90;;;;;;5052120;28;20037;-66
2024/01/23 06:31:30;;;;;;;33.53;4.95;;;7.40;99.90;;;;;;5051034;28;20125;-66
2024/01/23 06:33:56;;;;;;;31.88;5.32;;;7.40;99.90;;;;;;5038713;28;20040;-66
2024/01/23 06:36:22;;;;;;;26.48;5.18;;;7.40;99.90;;;;;;5060644;28;20044;-65
2024/01/23 06:38:48;;;;;;;25.25;4.30;;;7.40;99.90;;;;;;5070185;28;20131;-66
2024/01/23 06:41:14;;;;;;;23.98;4.82;;;7.40;99.90;;;;;;5056722;28;20135;-66
2024/01/23 06:43:39;;;;;;;29.80;4.57;;;7.50;99.90;;;;;;5056286;28;20099;-65
2024/01/23 06:46:05;;;;;;;24.42;3.85;;;7.40;99.90;;;;;;5050482;28;20045;-65
2024/01/23 06:48:31;;;;;;;25.48;4.43;;;7.40;99.90;;;;;;5050700;28;20041;-66
2024/01/23 06:50:56;;;;;;;23.10;4.70;;;7.40;99.90;;;;;;5057065;28;20028;-65
2024/01/23 06:53:22;;;;;;;32.60;4.72;;;7.40;99.90;;;;;;5063406;28;20032;-66
2024/01/23 06:55:48;;;;;;;27.40;5.15;;;7.50;99.90;;;;;;5073730;28;20032;-67
2024/01/23 06:58:14;;;;;;;28.35;5.22;;;7.40;99.90;;;;;;5043635;28;20037;-68
2024/01/23 07:00:40;;;;;;;30.73;4.93;;;7.50;99.90;;;;;;5066346;28;20212;-66
2024/01/23 07:03:06;;;;;;;27.38;4.30;;;7.50;99.90;;;;;;5068973;28;20060;-65
2024/01/23 07:05:32;;;;;;;31.35;5.00;;;7.50;99.90;;;;;;5069099;28;20047;-65
2024/01/23 07:07:57;;;;;;;24.25;4.43;;;7.50;99.90;;;;;;5072800;28;20033;-65
2024/01/23 07:10:23;;;;;;;26.05;5.28;;;7.50;99.90;;;;;;5055257;28;20124;-65
2024/01/23 07:12:49;;;;;;;23.63;5.10;;;7.50;99.90;;;;;;5068166;28;20040;-65
2024/01/23 07:15:14;;;;;;;22.75;4.75;;;7.50;99.90;;;;;;5065116;28;20054;-65
2024/01/23 07:17:40;;;;;;;22.27;4.15;;;7.40;99.90;;;;;;5061491;28;20044;-69
2024/01/23 07:20:09;;;;;;;22.33;4.45;;;7.50;99.90;;;;;;5067004;28;20105;-67
2024/01/23 07:22:34;;;;;;;23.75;5.13;;;7.40;99.90;;;;;;5048284;28;20441;-68
2024/01/23 07:25:04;;;;;;;27.98;4.90;;;7.30;99.90;;;;;;5070582;28;20085;-65
2024/01/23 07:27:30;;;;;;;30.60;5.00;;;7.30;99.90;;;;;;5046918;28;20076;-67
2024/01/23 07:29:56;;;;;;;26.75;5.35;;;7.20;99.90;;;;;;5073364;28;20044;-65
2024/01/23 07:32:21;;;;;;;24.95;4.63;;;7.20;99.90;;;;;;5066684;28;20380;-66
2024/01/23 07:34:47;;;;;;;20.70;4.10;;;7.30;99.90;;;;;;5064906;28;20033;-66
2024/01/23 07:37:13;;;;;;;31.25;4.60;;;7.20;99.90;;;;;;5072864;28;20076;-66
2024/01/23 07:39:39;;;;;;;31.00;4.65;;;7.20;99.90;;;;;;5073260;28;20037;-66
2024/01/23 07:42:04;;;;;;;27.50;5.80;;;7.20;99.90;;;;;;5060119;28;20036;-66
2024/01/23 07:44:32;;;;;;;29.08;5.35;;;7.10;99.90;;;;;;5064176;28;20047;-65
2024/01/23 07:46:58;;;;;;;23.52;4.28;;;7.00;99.90;;;;;;5068618;28;20414;-65
2024/01/23 07:49:24;;;;;;;25.00;4.90;;;7.00;99.90;;;;;;5063089;28;20058;-65
2024/01/23 07:51:50;;;;;;;32.67;4.78;;;7.00;99.90;;;;;;5068113;28;20037;-66
2024/01/23 07:54:16;;;;;;;24.40;5.65;;;6.90;99.90;;;;;;5052844;28;20041;-66
2024/01/23 07:56:42;;;;;;;23.02;4.35;;;6.80;99.90;;;;;;5053736;28;20032;-66
2024/01/23 07:59:07;;;;;;;24.88;4.55;;;6.80;99.90;;;;;;5054596;28;20483;-66
2024/01/23 08:01:33;;;;;;;29.05;4.90;;;6.80;99.90;;;;;;5067961;28;20041;-66
2024/01/23 08:03:59;;;;;;;27.63;4.60;;;6.60;99.90;;;;;;5061929;28;20490;-66
2024/01/23 08:06:25;;;;;;;30.75;4.60;;;6.60;99.90;;;;;;5038977;28;20057;-67
2024/01/23 08:08:51;;;;;;;28.05;4.72;;;6.60;99.90;;;;;;5058527;28;20045;-66
2024/01/23 08:11:17;;;;;;;25.98;4.88;;;6.60;99.90;;;;;;5051935;28;20035;-66
2024/01/23 08:13:43;;;;;;;24.13;4.50;;;6.60;99.90;;;;;;5048204;28;20043;-67
2024/01/23 08:16:10;;;;;;;31.92;5.65;;;6.60;99.90;;;;;;5046046;28;20068;-67
2024/01/23 08:18:39;;;;;;;26.80;4.28;;;6.70;99.90;;;;;;5063256;28;20048;-66
2024/01/23 08:21:05;;;;;;;24.42;3.90;;;6.60;99.90;;;;;;5060999;28;20491;-66
2024/01/23 08:23:31;;;;;;;29.75;4.65;;;6.60;99.90;;;;;;5036870;28;20143;-66
2024/01/23 08:25:56;;;;;;;29.52;4.45;;;6.60;99.90;;;;;;5043814;28;20132;-65
2024/01/23 08:28:23;;;;;;;36.20;5.82;;;6.70;99.90;;;;;;5063738;28;20076;-66
2024/01/23 08:30:49;;;;;;;24.10;4.68;;;6.70;99.90;;;;;;5070581;28;20028;-66
2024/01/23 08:33:18;;;;;;;24.38;3.92;;;6.70;99.90;;;;;;5070947;28;20299;-66
2024/01/23 08:35:44;;;;;;;28.83;4.82;;;6.70;99.90;;;;;;5056316;28;20036;-67
2024/01/23 08:38:10;;;;;;;20.92;4.45;;;6.70;99.90;;;;;;5064008;28;20577;-67
2024/01/23 08:40:37;;;;;;;23.30;3.72;;;6.70;99.90;;;;;;5068195;28;20094;-67
2024/01/23 08:43:03;;;;;;;24.63;4.13;;;6.80;99.90;;;;;;5066117;28;20037;-67
2024/01/23 08:45:29;;;;;;;27.35;5.32;;;6.80;99.90;;;;;;5067854;28;20036;-66
2024/01/23 08:47:55;;;;;;;30.83;5.82;;;6.80;99.90;;;;;;5061221;28;20418;-67
2024/01/23 08:50:21;;;;;;;29.98;4.90;;;6.80;99.90;;;;;;5061118;28;20044;-67
2024/01/23 08:52:47;;;;;;;22.65;4.65;;;6.90;99.90;;;;;;5056513;28;20442;-67
2024/01/23 08:55:14;;;;;;;31.33;5.30;;;6.90;99.90;;;;;;5047905;28;20119;-67
2024/01/23 08:57:40;;;;;;;25.80;4.88;;;6.90;99.90;;;;;;5032773;28;20045;-66
2024/01/23 09:00:08;;;;;;;23.35;4.55;;;6.90;99.90;;;;;;5066520;28;20089;-67
2024/01/23 09:02:33;;;;;;;26.27;4.25;;;6.90;99.90;;;;;;5064375;28;20040;-66
2024/01/23 09:04:59;;;;;;;26.20;5.15;;;6.90;99.90;;;;;;5070488;28;20039;-66
2024/01/23 09:07:25;;;;;;;34.42;5.32;;;7.00;99.90;;;;;;5053213;28;20041;-66
2024/01/23 09:09:51;;;;;;;26.48;4.07;;;7.10;99.90;;;;;;5049886;28;20088;-68
2024/01/23 09:12:16;;;;;;;26.95;4.80;;;7.10;99.90;;;;;;5065224;28;20068;-66
2024/01/23 09:14:43;;;;;;;26.13;4.18;;;7.00;99.90;;;;;;5040464;28;20028;-67
2024/01/23 09:17:08;;;;;;;26.75;4.80;;;7.10;99.90;;;;;;5067233;28;20487;-67
2024/01/23 09:19:34;;;;;;;28.77;5.18;;;7.10;99.90;;;;;;5050921;28;20037;-67
2024/01/23 09:21:59;;;;;;;31.73;5.00;;;7.10;99.90;;;;;;5050709;28;20045;-67
2024/01/23 09:24:25;;;;;;;25.67;5.07;;;7.10;99.90;;;;;;5051638;28;20040;-66
2024/01/23 09:26:51;;;;;;;23.35;4.35;;;7.20;99.90;;;;;;5062140;28;20036;-66
2024/01/23 09:29:17;;;;;;;26.42;4.03;;;7.20;99.90;;;;;;5065427;28;20089;-67
2024/01/23 09:31:46;;;;;;;20.90;4.05;;;7.30;99.90;;;;;;5062639;28;20040;-66
2024/01/23 09:34:12;;;;;;;26.67;4.90;;;7.30;99.90;;;;;;5058606;28;20116;-66
2024/01/23 09:36:38;;;;;;;26.23;4.07;;;7.30;99.90;;;;;;5052651;28;20570;-67
2024/01/23 09:39:04;;;;;;;32.88;5.20;;;7.30;99.90;;;;;;5054082;28;20068;-67
2024/01/23 09:41:35;;;;;;;27.23;4.35;;;7.30;99.90;;;;;;5047915;28;20080;-67
2024/01/23 09:44:01;;;;;;;23.08;4.18;;;7.30;99.90;;;;;;5039508;28;20045;-67
2024/01/23 09:46:27;;;;;;;27.48;4.50;;;7.30;99.90;;;;;;5061298;28;20040;-67
2024/01/23 09:48:53;;;;;;;22.17;4.03;;;7.40;99.90;;;;;;5062603;28;20047;-67
2024/01/23 09:51:21;;;;;;;31.38;4.03;;;7.40;99.90;;;;;;5049878;28;20048;-67
2024/01/23 09:53:46;;;;;;;26.00;4.85;;;7.50;99.90;;;;;;5056920;28;20037;-67
2024/01/23 09:56:12;;;;;;;25.70;5.93;;;7.50;99.90;;;;;;5051608;28;20106;-67
2024/01/23 09:58:38;;;;;;;32.95;5.13;;;7.60;99.90;;;;;;5063316;28;20144;-67
2024/01/23 10:01:05;;;;;;;25.33;5.00;;;7.70;99.90;;;;;;5058594;28;20123;-67
2024/01/23 10:03:35;;;;;;;26.52;4.47;;;7.70;99.90;;;;;;5064812;28;20036;-67
2024/01/23 10:06:01;;;;;;;21.42;4.05;;;7.80;99.90;;;;;;5065198;28;20079;-67
2024/01/23 10:08:27;;;;;;;25.98;4.35;;;7.80;99.90;;;;;;5071116;28;20391;-67
2024/01/23 10:11:02;;;;;;;23.27;4.70;;;7.80;99.90;;;;;;5057140;28;20090;-67
2024/01/23 10:13:28;;;;;;;23.60;4.47;;;7.80;99.90;;;;;;5059399;28;20387;-66
2024/01/23 10:15:54;;;;;;;20.90;4.43;;;7.80;99.90;;;;;;5071236;28;20128;-66
2024/01/23 10:18:23;;;;;;;26.52;4.20;;;7.80;99.90;;;;;;5062792;28;20482;-67
2024/01/23 10:20:49;;;;;;;24.50;4.30;;;7.90;99.90;;;;;;5067281;28;20025;-67
2024/01/23 10:23:15;;;;;;;21.90;3.85;;;7.90;99.90;;;;;;5053995;28;20087;-66
2024/01/23 10:25:41;;;;;;;23.40;4.50;;;8.00;99.90;;;;;;5052606;28;20044;-66
2024/01/23 10:28:10;;;;;;;29.58;4.88;;;8.10;99.90;;;;;;5059497;28;20040;-66
2024/01/23 10:30:38;;;;;;;19.90;4.20;;;8.00;99.90;;;;;;5065233;28;20044;-66
2024/01/23 10:33:06;;;;;;;27.80;4.55;;;8.00;99.90;;;;;;5074877;28;20090;-67
2024/01/23 10:35:35;;;;;;;19.65;4.50;;;8.10;99.90;;;;;;5047479;28;20041;-66
2024/01/23 10:38:05;;;;;;;20.42;4.30;;;8.10;99.90;;;;;;5074443;28;20075;-67
2024/01/23 10:40:31;;;;;;;20.88;4.65;;;8.10;99.90;;;;;;5055588;28;20082;-67
2024/01/23 10:42:57;;;;;;;21.70;4.68;;;8.10;99.90;;;;;;5036871;28;20069;-66
2024/01/23 10:45:23;;;;;;;24.45;3.80;;;8.00;99.90;;;;;;5044791;28;20097;-66
2024/01/23 10:47:51;;;;;;;20.92;3.35;;;8.00;99.90;;;;;;5054457;28;20049;-67
2024/01/23 10:50:20;;;;;;;30.92;4.25;;;8.00;99.90;;;;;;5038198;28;20047;-67
2024/01/23 10:52:47;;;;;;;22.35;4.03;;;8.10;99.90;;;;;;5054908;28;20036;-66
2024/01/23 10:55:13;;;;;;;21.25;4.00;;;8.10;99.90;;;;;;5065532;28;20115;-66
2024/01/23 10:57:43;;;;;;;25.95;4.05;;;8.10;99.90;;;;;;5073306;28;20074;-66
2024/01/23 11:00:12;;;;;;;21.58;3.65;;;8.00;99.90;;;;;;5060844;28;20040;-67
2024/01/23 11:02:56;;;;;;;25.35;4.13;;;8.00;99.90;;;;;;5062014;28;20041;-67
2024/01/23 11:05:28;;;;;;;25.45;5.03;;;8.10;99.90;;;;;;5054149;28;20499;-66
2024/01/23 11:08:01;;;;;;;29.08;3.67;;;8.20;99.90;;;;;;5059618;28;20501;-67
2024/01/23 11:10:46;;;;;;;19.50;3.67;;;8.20;99.90;;;;;;5037201;28;20086;-67
2024/01/23 11:13:28;;;;;;;24.60;4.15;;;8.20;99.90;;;;;;5053448;28;20037;-67
2024/01/23 11:15:54;;;;;;;24.90;4.10;;;8.30;99.90;;;;;;5052324;28;20037;-67
2024/01/23 11:18:23;;;;;;;23.95;4.47;;;8.20;99.90;;;;;;5053719;28;20088;-66
2024/01/23 11:21:10;;;;;;;20.60;3.70;;;8.20;99.90;;;;;;5071359;28;20085;-67
2024/01/23 11:23:43;;;;;;;26.13;3.97;;;8.40;99.90;;;;;;5032477;28;20548;-67
2024/01/23 11:26:16;;;;;;;21.67;4.13;;;8.50;99.90;;;;;;5034980;28;20399;-67
2024/01/23 11:29:08;;;;;;;27.95;5.00;;;8.60;99.90;;;;;;5061718;28;20037;-67
2024/01/23 11:31:39;;;;;;;22.92;3.63;;;8.60;99.90;;;;;;5048679;28;20040;-66
2024/01/23 11:34:22;;;;;;;46.30;4.65;;;8.70;99.90;;;;;;5064017;28;20075;-67
2024/01/23 11:36:48;;;;;;;24.67;3.88;;;8.70;99.90;;;;;;5032201;28;20037;-66
2024/01/23 11:39:22;;;;;;;29.30;4.75;;;8.80;99.90;;;;;;5063662;28;20632;-66
2024/01/23 11:41:49;;;;;;;26.42;4.00;;;8.80;99.90;;;;;;5062020;28;20036;-66
2024/01/23 11:44:16;;;;;;;28.00;4.93;;;8.90;99.90;;;;;;5061961;28;20109;-67
2024/01/23 11:46:43;;;;;;;23.52;4.10;;;8.90;99.90;;;;;;5072075;28;20040;-66
2024/01/23 11:49:10;;;;;;;26.75;4.80;;;8.80;99.90;;;;;;5071780;28;20119;-67
2024/01/23 11:51:37;;;;;;;26.30;4.47;;;8.70;99.90;;;;;;5059844;28;20143;-66
2024/01/23 11:54:09;;;;;;;20.08;4.45;;;8.70;99.90;;;;;;5061667;28;20104;-66
2024/01/23 11:56:39;;;;;;;22.35;4.13;;;8.70;99.90;;;;;;5052123;28;20041;-66
2024/01/23 11:59:04;;;;;;;22.38;3.67;;;8.70;99.90;;;;;;5061187;28;20554;-66
2024/01/23 12:01:32;;;;;;;26.42;4.38;;;8.80;99.90;;;;;;5067982;28;20043;-67
2024/01/23 12:03:57;;;;;;;22.60;3.55;;;8.80;99.90;;;;;;5033381;28;20463;-66
2024/01/23 12:06:25;;;;;;;24.33;3.90;;;8.80;99.90;;;;;;5067187;28;20115;-67
2024/01/23 12:08:51;;;;;;;22.90;3.95;;;8.80;99.90;;;;;;5047885;28;20053;-67
2024/01/23 12:11:18;;;;;;;23.75;4.05;;;8.80;99.90;;;;;;5068582;28;20047;-66
2024/01/23 12:13:44;;;;;;;21.02;3.60;;;8.80;99.90;;;;;;5062141;28;20074;-67
2024/01/23 12:16:10;;;;;;;24.80;4.47;;;8.70;99.90;;;;;;5055356;28;20044;-66
2024/01/23 12:18:36;;;;;;;23.80;4.03;;;8.60;99.90;;;;;;5036237;28;20036;-66
2024/01/23 12:21:04;;;;;;;20.38;4.00;;;8.60;99.90;;;;;;5069492;28;20032;-68
2024/01/23 12:23:30;;;;;;;23.38;3.92;;;8.70;99.90;;;;;;5044341;28;20131;-66
2024/01/23 12:25:57;;;;;;;24.80;4.05;;;8.70;99.90;;;;;;5059989;28;20040;-67
2024/01/23 12:28:23;;;;;;;20.63;4.20;;;8.80;99.90;;;;;;5047673;28;20068;-67
2024/01/23 12:30:49;;;;;;;22.42;4.18;;;8.80;99.90;;;;;;5067704;28;20498;-67
2024/01/23 12:33:18;;;;;;;27.20;4.00;;;8.90;99.90;;;;;;5062126;28;20040;-66
2024/01/23 12:35:47;;;;;;;25.73;3.55;;;8.90;99.90;;;;;;5063933;28;20119;-66
2024/01/23 12:38:20;;;;;;;23.92;4.00;;;9.00;99.90;;;;;;5071988;28;20042;-67
2024/01/23 12:40:47;;;;;;;21.42;3.97;;;9.00;99.90;;;;;;5044188;28;20122;-66
2024/01/23 12:43:15;;;;;;;24.73;4.47;;;9.00;99.90;;;;;;5056479;28;20041;-66
2024/01/23 12:45:40;;;;;;;25.67;4.20;;;9.10;99.90;;;;;;5061020;28;20047;-67
2024/01/23 12:48:10;;;;;;;19.73;4.57;;;9.10;99.90;;;;;;5059570;28;20066;-67
2024/01/23 12:50:37;;;;;;;20.27;3.60;;;9.10;99.90;;;;;;5046462;28;20076;-67
2024/01/23 12:53:03;;;;;;;21.90;3.42;;;9.00;99.90;;;;;;5071826;28;20040;-67
2024/01/23 12:55:30;;;;;;;26.60;4.13;;;9.00;99.90;;;;;;5053748;28;20040;-66
2024/01/23 12:57:56;;;;;;;24.33;4.70;;;8.90;99.90;;;;;;5063628;28;20032;-67
2024/01/23 13:00:22;;;;;;;15.95;3.15;;;8.80;99.90;;;;;;5065544;28;20040;-67
2024/01/23 13:02:48;;;;;;;32.42;4.03;;;8.80;99.90;;;;;;5063179;28;20040;-67
2024/01/23 13:05:17;;;;;;;24.42;4.80;;;8.80;99.90;;;;;;5053050;28;20376;-66